sensor_id;sensor_type;location;lat;lon;timestamp;pressure;altitude;pressure_sealevel;temperature;humidity
43312;BME280;30041;48.300;16.352;2023-04-30T00:01:29;99888.13;;;22.40;47.65
43312;BME280;30041;48.300;16.352;2023-04-30T00:03:55;99889.44;;;22.37;47.39
43312;BME280;30041;48.300;16.352;2023-04-30T00:06:20;99893.97;;;22.37;47.32
43312;BME280;30041;48.300;16.352;2023-04-30T00:08:46;99895.63;;;22.38;47.32
43312;BME280;30041;48.300;16.352;2023-04-30T00:11:11;99897.75;;;22.36;47.56
43312;BME280;30041;48.300;16.352;2023-04-30T00:13:37;99899.63;;;22.35;47.72
43312;BME280;30041;48.300;16.352;2023-04-30T00:16:02;99889.88;;;22.34;47.49
43312;BME280;30041;48.300;16.352;2023-04-30T00:18:28;99896.13;;;22.35;47.37
43312;BME280;30041;48.300;16.352;2023-04-30T00:20:53;99900.44;;;22.36;47.41
43312;BME280;30041;48.300;16.352;2023-04-30T00:23:19;99892.00;;;22.32;47.65
43312;BME280;30041;48.300;16.352;2023-04-30T00:25:45;99900.94;;;22.33;47.43
43312;BME280;30041;48.300;16.352;2023-04-30T00:28:10;99898.94;;;22.28;47.69
43312;BME280;30041;48.300;16.352;2023-04-30T00:30:36;99903.06;;;22.31;47.60
43312;BME280;30041;48.300;16.352;2023-04-30T00:33:01;99903.88;;;22.31;47.49
43312;BME280;30041;48.300;16.352;2023-04-30T00:35:26;99897.66;;;22.31;47.47
43312;BME280;30041;48.300;16.352;2023-04-30T00:37:52;99904.69;;;22.32;47.63
43312;BME280;30041;48.300;16.352;2023-04-30T00:40:19;99900.34;;;22.31;47.53
43312;BME280;30041;48.300;16.352;2023-04-30T00:42:45;99903.28;;;22.29;47.53
43312;BME280;30041;48.300;16.352;2023-04-30T00:45:10;99908.91;;;22.28;47.61
43312;BME280;30041;48.300;16.352;2023-04-30T00:47:36;99902.91;;;22.26;47.54
43312;BME280;30041;48.300;16.352;2023-04-30T00:50:02;99904.00;;;22.25;47.54
43312;BME280;30041;48.300;16.352;2023-04-30T00:52:28;99914.78;;;22.25;47.58
43312;BME280;30041;48.300;16.352;2023-04-30T00:54:54;99911.69;;;22.21;47.43
43312;BME280;30041;48.300;16.352;2023-04-30T00:57:21;99910.19;;;22.25;47.54
43312;BME280;30041;48.300;16.352;2023-04-30T00:59:47;99911.59;;;22.28;47.40
43312;BME280;30041;48.300;16.352;2023-04-30T01:02:14;99913.13;;;22.24;47.62
43312;BME280;30041;48.300;16.352;2023-04-30T01:04:39;99923.94;;;22.24;47.50
43312;BME280;30041;48.300;16.352;2023-04-30T01:07:05;99924.78;;;22.24;47.35
43312;BME280;30041;48.300;16.352;2023-04-30T01:09:31;99925.00;;;22.23;47.38
43312;BME280;30041;48.300;16.352;2023-04-30T01:12:36;99923.56;;;22.20;47.66
43312;BME280;30041;48.300;16.352;2023-04-30T01:18:01;99934.38;;;22.20;47.51
43312;BME280;30041;48.300;16.352;2023-04-30T01:20:28;99925.44;;;22.20;47.67
43312;BME280;30041;48.300;16.352;2023-04-30T01:23:13;99928.38;;;22.18;47.65
43312;BME280;30041;48.300;16.352;2023-04-30T01:28:30;99930.25;;;22.17;47.34
43312;BME280;30041;48.300;16.352;2023-04-30T01:30:57;99924.03;;;22.17;47.44
43312;BME280;30041;48.300;16.352;2023-04-30T01:33:23;99930.72;;;22.14;47.63
43312;BME280;30041;48.300;16.352;2023-04-30T01:36:13;99932.81;;;22.12;47.61
43312;BME280;30041;48.300;16.352;2023-04-30T01:39:18;99938.22;;;22.12;47.29
43312;BME280;30041;48.300;16.352;2023-04-30T01:42:04;99935.06;;;22.15;47.49
43312;BME280;30041;48.300;16.352;2023-04-30T01:44:46;99935.78;;;22.11;47.66
43312;BME280;30041;48.300;16.352;2023-04-30T01:47:38;99930.81;;;22.08;47.46
43312;BME280;30041;48.300;16.352;2023-04-30T01:52:59;99929.56;;;22.10;47.43
43312;BME280;30041;48.300;16.352;2023-04-30T01:55:36;99930.59;;;22.09;47.42
43312;BME280;30041;48.300;16.352;2023-04-30T01:58:09;99936.47;;;22.06;47.53
43312;BME280;30041;48.300;16.352;2023-04-30T02:00:35;99940.34;;;22.10;47.71
43312;BME280;30041;48.300;16.352;2023-04-30T02:03:01;99942.47;;;22.08;47.43
43312;BME280;30041;48.300;16.352;2023-04-30T02:05:26;99941.41;;;22.09;47.53
43312;BME280;30041;48.300;16.352;2023-04-30T02:07:52;99953.25;;;22.08;47.38
43312;BME280;30041;48.300;16.352;2023-04-30T02:10:20;99953.84;;;22.10;47.31
43312;BME280;30041;48.300;16.352;2023-04-30T02:12:46;99956.41;;;22.05;47.49
43312;BME280;30041;48.300;16.352;2023-04-30T02:15:12;99961.81;;;22.05;47.49
43312;BME280;30041;48.300;16.352;2023-04-30T02:17:38;99958.06;;;22.06;47.40
43312;BME280;30041;48.300;16.352;2023-04-30T02:20:03;99961.81;;;22.05;47.37
43312;BME280;30041;48.300;16.352;2023-04-30T02:22:29;99962.88;;;22.04;47.40
43312;BME280;30041;48.300;16.352;2023-04-30T02:24:55;99969.09;;;22.05;47.33
43312;BME280;30041;48.300;16.352;2023-04-30T02:27:22;99966.75;;;22.08;47.57
43312;BME280;30041;48.300;16.352;2023-04-30T02:29:48;99961.00;;;22.05;47.40
43312;BME280;30041;48.300;16.352;2023-04-30T02:32:14;99963.91;;;22.03;47.21
43312;BME280;30041;48.300;16.352;2023-04-30T02:34:39;99971.19;;;22.03;47.55
43312;BME280;30041;48.300;16.352;2023-04-30T02:37:05;99980.97;;;22.04;47.26
43312;BME280;30041;48.300;16.352;2023-04-30T02:39:31;99978.47;;;22.02;47.35
43312;BME280;30041;48.300;16.352;2023-04-30T02:41:57;99979.53;;;22.01;47.33
43312;BME280;30041;48.300;16.352;2023-04-30T02:44:23;99978.47;;;22.02;47.42
43312;BME280;30041;48.300;16.352;2023-04-30T02:46:48;99978.69;;;22.01;47.37
43312;BME280;30041;48.300;16.352;2023-04-30T02:49:14;99981.19;;;22.02;47.44
43312;BME280;30041;48.300;16.352;2023-04-30T02:51:40;99985.97;;;22.00;47.45
43312;BME280;30041;48.300;16.352;2023-04-30T02:54:05;99991.38;;;22.00;47.34
43312;BME280;30041;48.300;16.352;2023-04-30T02:56:31;99991.38;;;22.00;47.50
43312;BME280;30041;48.300;16.352;2023-04-30T02:58:56;99989.50;;;22.01;47.45
43312;BME280;30041;48.300;16.352;2023-04-30T03:01:22;99998.88;;;21.98;47.17
43312;BME280;30041;48.300;16.352;2023-04-30T03:03:47;99998.06;;;21.97;47.52
43312;BME280;30041;48.300;16.352;2023-04-30T03:06:13;99992.69;;;21.97;47.61
43312;BME280;30041;48.300;16.352;2023-04-30T03:08:38;99990.19;;;21.96;47.33
43312;BME280;30041;48.300;16.352;2023-04-30T03:11:04;99998.06;;;21.97;47.26
43312;BME280;30041;48.300;16.352;2023-04-30T03:13:29;99998.50;;;21.94;47.37
43312;BME280;30041;48.300;16.352;2023-04-30T03:15:58;99997.47;;;21.95;47.42
43312;BME280;30041;48.300;16.352;2023-04-30T03:18:25;99997.69;;;21.94;47.53
43312;BME280;30041;48.300;16.352;2023-04-30T03:20:51;99996.28;;;21.91;47.42
43312;BME280;30041;48.300;16.352;2023-04-30T03:23:16;100006.88;;;21.93;47.32
43312;BME280;30041;48.300;16.352;2023-04-30T03:25:42;100012.00;;;21.94;47.46
43312;BME280;30041;48.300;16.352;2023-04-30T03:28:07;100014.72;;;21.94;47.51
43312;BME280;30041;48.300;16.352;2023-04-30T03:30:33;100004.38;;;21.91;47.27
43312;BME280;30041;48.300;16.352;2023-04-30T03:32:58;100006.59;;;21.94;47.47
43312;BME280;30041;48.300;16.352;2023-04-30T03:35:24;100017.88;;;21.91;47.23
43312;BME280;30041;48.300;16.352;2023-04-30T03:37:49;100012.72;;;21.90;47.43
43312;BME280;30041;48.300;16.352;2023-04-30T03:40:15;100020.09;;;21.94;47.20
43312;BME280;30041;48.300;16.352;2023-04-30T03:42:41;100017.66;;;21.93;47.40
43312;BME280;30041;48.300;16.352;2023-04-30T03:45:06;100021.88;;;21.89;47.29
43312;BME280;30041;48.300;16.352;2023-04-30T03:47:35;100028.06;;;21.89;47.50
43312;BME280;30041;48.300;16.352;2023-04-30T03:50:01;100017.06;;;21.91;47.34
43312;BME280;30041;48.300;16.352;2023-04-30T03:52:27;100023.50;;;21.90;47.22
43312;BME280;30041;48.300;16.352;2023-04-30T03:54:52;100018.69;;;21.92;47.36
43312;BME280;30041;48.300;16.352;2023-04-30T03:57:18;100022.09;;;21.87;47.37
43312;BME280;30041;48.300;16.352;2023-04-30T03:59:43;100030.19;;;21.87;47.38
43312;BME280;30041;48.300;16.352;2023-04-30T04:02:09;100034.75;;;21.87;47.18
43312;BME280;30041;48.300;16.352;2023-04-30T04:04:34;100041.78;;;21.88;47.23
43312;BME280;30041;48.300;16.352;2023-04-30T04:07:00;100041.78;;;21.88;47.22
43312;BME280;30041;48.300;16.352;2023-04-30T04:09:25;100043.94;;;21.86;47.31
43312;BME280;30041;48.300;16.352;2023-04-30T04:11:51;100046.84;;;21.84;47.35
43312;BME280;30041;48.300;16.352;2023-04-30T04:14:17;100040.84;;;21.82;47.40
43312;BME280;30041;48.300;16.352;2023-04-30T04:16:42;100049.53;;;21.84;47.27
43312;BME280;30041;48.300;16.352;2023-04-30T04:19:08;100045.56;;;21.87;47.47
43312;BME280;30041;48.300;16.352;2023-04-30T04:21:33;100053.44;;;21.88;47.62
43312;BME280;30041;48.300;16.352;2023-04-30T04:23:59;100052.59;;;21.88;47.62
43312;BME280;30041;48.300;16.352;2023-04-30T04:26:24;100063.16;;;21.89;47.42
43312;BME280;30041;48.300;16.352;2023-04-30T04:28:50;100063.38;;;21.88;47.53
43312;BME280;30041;48.300;16.352;2023-04-30T04:31:17;100061.06;;;21.91;47.55
43312;BME280;30041;48.300;16.352;2023-04-30T04:33:43;100065.16;;;21.94;47.74
43312;BME280;30041;48.300;16.352;2023-04-30T04:36:09;100071.03;;;21.91;47.68
43312;BME280;30041;48.300;16.352;2023-04-30T04:38:34;100069.88;;;21.98;47.32
43312;BME280;30041;48.300;16.352;2023-04-30T04:40:59;100070.16;;;22.09;46.94
43312;BME280;30041;48.300;16.352;2023-04-30T04:43:25;100073.78;;;22.14;46.93
43312;BME280;30041;48.300;16.352;2023-04-30T04:45:51;100071.44;;;22.18;46.83
43312;BME280;30041;48.300;16.352;2023-04-30T04:48:16;100071.22;;;22.20;46.68
43312;BME280;30041;48.300;16.352;2023-04-30T04:50:42;100080.78;;;22.22;46.90
43312;BME280;30041;48.300;16.352;2023-04-30T04:53:07;100081.78;;;22.21;47.03
43312;BME280;30041;48.300;16.352;2023-04-30T04:55:33;100083.47;;;22.22;46.93
43312;BME280;30041;48.300;16.352;2023-04-30T04:57:58;100082.19;;;22.25;46.96
43312;BME280;30041;48.300;16.352;2023-04-30T05:00:24;100085.34;;;22.22;46.81
43312;BME280;30041;48.300;16.352;2023-04-30T05:02:49;100088.47;;;22.18;46.23
43312;BME280;30041;48.300;16.352;2023-04-30T05:05:15;100096.56;;;22.18;46.42
43312;BME280;30041;48.300;16.352;2023-04-30T05:07:41;100099.84;;;22.21;46.71
43312;BME280;30041;48.300;16.352;2023-04-30T05:10:07;100083.06;;;22.18;46.79
43312;BME280;30041;48.300;16.352;2023-04-30T05:12:33;100097.97;;;22.21;46.95
43312;BME280;30041;48.300;16.352;2023-04-30T05:14:58;100097.16;;;22.21;47.09
43312;BME280;30041;48.300;16.352;2023-04-30T05:17:24;100102.78;;;22.19;47.10
43312;BME280;30041;48.300;16.352;2023-04-30T05:19:51;100089.06;;;22.21;47.41
43312;BME280;30041;48.300;16.352;2023-04-30T05:22:16;100091.09;;;22.25;46.95
43312;BME280;30041;48.300;16.352;2023-04-30T05:24:42;100096.50;;;22.37;46.40
43312;BME280;30041;48.300;16.352;2023-04-30T05:27:08;100104.88;;;22.47;46.21
43312;BME280;30041;48.300;16.352;2023-04-30T05:29:33;100106.41;;;22.55;46.00
43312;BME280;30041;48.300;16.352;2023-04-30T05:32:00;100114.06;;;22.58;45.62
43312;BME280;30041;48.300;16.352;2023-04-30T05:34:26;100107.34;;;22.61;45.73
43312;BME280;30041;48.300;16.352;2023-04-30T05:36:52;100102.53;;;22.63;45.75
43312;BME280;30041;48.300;16.352;2023-04-30T05:39:17;100114.75;;;22.65;45.76
43312;BME280;30041;48.300;16.352;2023-04-30T05:41:43;100116.66;;;22.65;45.65
43312;BME280;30041;48.300;16.352;2023-04-30T05:44:10;100115.56;;;22.66;45.63
43312;BME280;30041;48.300;16.352;2023-04-30T05:46:36;100117.81;;;22.69;45.47
43312;BME280;30041;48.300;16.352;2023-04-30T05:49:01;100130.03;;;22.71;45.58
43312;BME280;30041;48.300;16.352;2023-04-30T05:51:27;100130.25;;;22.70;45.46
43312;BME280;30041;48.300;16.352;2023-04-30T05:53:53;100125.22;;;22.73;45.35
43312;BME280;30041;48.300;16.352;2023-04-30T05:56:18;100132.25;;;22.74;45.53
43312;BME280;30041;48.300;16.352;2023-04-30T05:58:44;100141.19;;;22.75;45.55
43312;BME280;30041;48.300;16.352;2023-04-30T06:01:09;100138.50;;;22.75;45.10
43312;BME280;30041;48.300;16.352;2023-04-30T06:03:35;100142.63;;;22.77;45.37
43312;BME280;30041;48.300;16.352;2023-04-30T06:06:01;100136.97;;;22.79;45.31
43312;BME280;30041;48.300;16.352;2023-04-30T06:08:26;100137.56;;;22.81;45.37
43312;BME280;30041;48.300;16.352;2023-04-30T06:10:52;100139.66;;;22.79;45.21
43312;BME280;30041;48.300;16.352;2023-04-30T06:13:17;100144.84;;;22.80;45.20
43312;BME280;30041;48.300;16.352;2023-04-30T06:15:43;100148.16;;;22.83;45.22
43312;BME280;30041;48.300;16.352;2023-04-30T06:18:09;100141.44;;;22.85;45.04
43312;BME280;30041;48.300;16.352;2023-04-30T06:20:34;100146.03;;;22.85;45.29
43312;BME280;30041;48.300;16.352;2023-04-30T06:23:00;100142.03;;;22.87;45.00
43312;BME280;30041;48.300;16.352;2023-04-30T06:25:25;100146.16;;;22.78;46.78
43312;BME280;30041;48.300;16.352;2023-04-30T06:27:51;100150.09;;;22.64;47.22
43312;BME280;30041;48.300;16.352;2023-04-30T06:30:16;100151.50;;;22.54;47.63
43312;BME280;30041;48.300;16.352;2023-04-30T06:32:42;100150.78;;;22.47;47.70
43312;BME280;30041;48.300;16.352;2023-04-30T06:35:08;100155.59;;;22.45;47.64
43312;BME280;30041;48.300;16.352;2023-04-30T06:37:33;100156.09;;;22.54;47.22
43312;BME280;30041;48.300;16.352;2023-04-30T06:39:59;100155.16;;;22.48;47.27
43312;BME280;30041;48.300;16.352;2023-04-30T06:42:24;100157.09;;;22.41;47.38
43312;BME280;30041;48.300;16.352;2023-04-30T06:44:50;100154.41;;;22.41;47.65
43312;BME280;30041;48.300;16.352;2023-04-30T06:47:15;100150.31;;;22.38;47.59
43312;BME280;30041;48.300;16.352;2023-04-30T06:49:41;100152.41;;;22.36;47.55
43312;BME280;30041;48.300;16.352;2023-04-30T06:52:06;100156.41;;;22.34;47.86
43312;BME280;30041;48.300;16.352;2023-04-30T06:54:32;100154.28;;;22.36;47.85
43312;BME280;30041;48.300;16.352;2023-04-30T06:56:57;100157.22;;;22.34;47.65
43312;BME280;30041;48.300;16.352;2023-04-30T06:59:22;100149.09;;;22.34;47.62
43312;BME280;30041;48.300;16.352;2023-04-30T07:01:48;100156.16;;;22.35;47.06
43312;BME280;30041;48.300;16.352;2023-04-30T07:04:13;100148.41;;;22.39;47.37
43312;BME280;30041;48.300;16.352;2023-04-30T07:06:39;100159.22;;;22.39;47.66
43312;BME280;30041;48.300;16.352;2023-04-30T07:09:04;100162.16;;;22.37;47.45
43312;BME280;30041;48.300;16.352;2023-04-30T07:11:30;100165.69;;;22.38;47.61
43312;BME280;30041;48.300;16.352;2023-04-30T07:13:55;100163.91;;;22.44;47.08
43312;BME280;30041;48.300;16.352;2023-04-30T07:16:23;100161.91;;;22.39;47.39
43312;BME280;30041;48.300;16.352;2023-04-30T07:18:49;100155.34;;;22.35;47.75
43312;BME280;30041;48.300;16.352;2023-04-30T07:21:14;100152.16;;;22.26;47.20
43312;BME280;30041;48.300;16.352;2023-04-30T07:23:40;100159.66;;;22.24;47.56
43312;BME280;30041;48.300;16.352;2023-04-30T07:26:05;100161.28;;;22.25;47.67
43312;BME280;30041;48.300;16.352;2023-04-30T07:28:31;100163.84;;;22.20;46.73
43312;BME280;30041;48.300;16.352;2023-04-30T07:30:56;100170.69;;;22.23;47.23
43312;BME280;30041;48.300;16.352;2023-04-30T07:33:22;100171.75;;;22.22;47.52
43312;BME280;30041;48.300;16.352;2023-04-30T07:35:47;100167.50;;;22.26;47.70
43312;BME280;30041;48.300;16.352;2023-04-30T07:38:13;100170.59;;;22.29;47.47
43312;BME280;30041;48.300;16.352;2023-04-30T07:40:38;100172.47;;;22.29;47.96
43312;BME280;30041;48.300;16.352;2023-04-30T07:43:03;100179.50;;;22.30;47.61
43312;BME280;30041;48.300;16.352;2023-04-30T07:45:29;100179.16;;;22.26;47.53
43312;BME280;30041;48.300;16.352;2023-04-30T07:47:54;100179.16;;;22.26;47.46
43312;BME280;30041;48.300;16.352;2023-04-30T07:50:20;100176.69;;;22.25;47.41
43312;BME280;30041;48.300;16.352;2023-04-30T07:52:48;100182.38;;;22.35;46.92
43312;BME280;30041;48.300;16.352;2023-04-30T07:55:13;100183.53;;;22.39;47.18
43312;BME280;30041;48.300;16.352;2023-04-30T07:57:39;100183.31;;;22.41;47.16
43312;BME280;30041;48.300;16.352;2023-04-30T08:00:05;100182.72;;;22.38;47.35
43312;BME280;30041;48.300;16.352;2023-04-30T08:02:30;100184.59;;;22.38;47.58
43312;BME280;30041;48.300;16.352;2023-04-30T08:04:56;100196.00;;;22.40;47.67
43312;BME280;30041;48.300;16.352;2023-04-30T08:07:21;100181.66;;;22.40;47.72
43312;BME280;30041;48.300;16.352;2023-04-30T08:09:47;100192.47;;;22.40;47.54
43312;BME280;30041;48.300;16.352;2023-04-30T08:12:12;100186.47;;;22.37;47.66
43312;BME280;30041;48.300;16.352;2023-04-30T08:14:38;100187.28;;;22.38;47.65
43312;BME280;30041;48.300;16.352;2023-04-30T08:17:03;100185.38;;;22.27;45.29
43312;BME280;30041;48.300;16.352;2023-04-30T08:19:29;100190.84;;;22.20;46.31
43312;BME280;30041;48.300;16.352;2023-04-30T08:21:54;100194.97;;;22.23;46.82
43312;BME280;30041;48.300;16.352;2023-04-30T08:24:20;100198.75;;;22.22;47.16
43312;BME280;30041;48.300;16.352;2023-04-30T08:26:46;100191.22;;;22.24;47.00
43312;BME280;30041;48.300;16.352;2023-04-30T08:29:11;100195.50;;;22.43;45.92
43312;BME280;30041;48.300;16.352;2023-04-30T08:31:37;100193.31;;;22.52;45.93
43312;BME280;30041;48.300;16.352;2023-04-30T08:34:02;100196.03;;;22.64;45.64
43312;BME280;30041;48.300;16.352;2023-04-30T08:36:28;100191.81;;;22.68;45.25
43312;BME280;30041;48.300;16.352;2023-04-30T08:38:54;100198.03;;;22.68;45.41
43312;BME280;30041;48.300;16.352;2023-04-30T08:41:23;100191.97;;;22.73;45.47
43312;BME280;30041;48.300;16.352;2023-04-30T08:43:51;100192.53;;;22.75;45.18
43312;BME280;30041;48.300;16.352;2023-04-30T08:46:17;100193.13;;;22.77;45.21
43312;BME280;30041;48.300;16.352;2023-04-30T08:48:44;100201.00;;;22.78;45.07
43312;BME280;30041;48.300;16.352;2023-04-30T08:51:10;100206.19;;;22.80;44.97
43312;BME280;30041;48.300;16.352;2023-04-30T08:53:36;100200.78;;;22.80;45.01
43312;BME280;30041;48.300;16.352;2023-04-30T08:56:03;100202.41;;;22.81;45.00
43312;BME280;30041;48.300;16.352;2023-04-30T08:58:29;100207.38;;;22.84;44.92
43312;BME280;30041;48.300;16.352;2023-04-30T09:00:57;100205.13;;;22.81;44.99
43312;BME280;30041;48.300;16.352;2023-04-30T09:03:23;100203.59;;;22.85;44.92
43312;BME280;30041;48.300;16.352;2023-04-30T09:05:48;100210.06;;;22.84;44.76
43312;BME280;30041;48.300;16.352;2023-04-30T09:08:17;100210.06;;;22.84;45.04
43312;BME280;30041;48.300;16.352;2023-04-30T09:10:43;100210.63;;;22.86;45.05
43312;BME280;30041;48.300;16.352;2023-04-30T09:13:09;100203.97;;;22.89;44.67
43312;BME280;30041;48.300;16.352;2023-04-30T09:15:36;100210.31;;;22.94;44.71
43312;BME280;30041;48.300;16.352;2023-04-30T09:18:11;100201.84;;;22.91;44.74
43312;BME280;30041;48.300;16.352;2023-04-30T09:20:37;100202.41;;;22.93;44.60
43312;BME280;30041;48.300;16.352;2023-04-30T09:23:09;100200.19;;;22.90;45.04
43312;BME280;30041;48.300;16.352;2023-04-30T09:25:39;100203.50;;;22.92;44.89
43312;BME280;30041;48.300;16.352;2023-04-30T09:28:12;100205.97;;;22.93;44.62
43312;BME280;30041;48.300;16.352;2023-04-30T09:30:39;100203.28;;;22.93;44.73
43312;BME280;30041;48.300;16.352;2023-04-30T09:33:05;100193.63;;;22.97;44.50
43312;BME280;30041;48.300;16.352;2023-04-30T09:35:33;100201.59;;;22.92;44.93
43312;BME280;30041;48.300;16.352;2023-04-30T09:37:59;100196.69;;;22.89;44.73
43312;BME280;30041;48.300;16.352;2023-04-30T09:40:41;100194.41;;;22.86;44.96
43312;BME280;30041;48.300;16.352;2023-04-30T09:43:06;100194.78;;;22.90;44.84
43312;BME280;30041;48.300;16.352;2023-04-30T09:45:42;100194.31;;;22.81;44.16
43312;BME280;30041;48.300;16.352;2023-04-30T09:48:09;100191.72;;;22.74;43.59
43312;BME280;30041;48.300;16.352;2023-04-30T09:50:38;100186.56;;;22.73;43.33
43312;BME280;30041;48.300;16.352;2023-04-30T09:53:07;100194.53;;;22.68;41.86
43312;BME280;30041;48.300;16.352;2023-04-30T09:55:34;100193.41;;;22.45;41.92
43312;BME280;30041;48.300;16.352;2023-04-30T09:58:04;100186.09;;;22.34;41.56
43312;BME280;30041;48.300;16.352;2023-04-30T10:00:31;100186.47;;;22.37;42.91
43312;BME280;30041;48.300;16.352;2023-04-30T10:02:58;100182.00;;;22.43;43.92
43312;BME280;30041;48.300;16.352;2023-04-30T10:05:26;100174.72;;;22.44;43.67
43312;BME280;30041;48.300;16.352;2023-04-30T10:07:52;100179.88;;;22.33;40.85
43312;BME280;30041;48.300;16.352;2023-04-30T10:10:18;100171.09;;;21.89;36.64
43312;BME280;30041;48.300;16.352;2023-04-30T10:12:51;100165.66;;;21.77;36.56
43312;BME280;30041;48.300;16.352;2023-04-30T10:15:39;100165.59;;;21.66;36.45
43312;BME280;30041;48.300;16.352;2023-04-30T10:18:33;100160.34;;;21.71;37.13
43312;BME280;30041;48.300;16.352;2023-04-30T10:21:02;100162.19;;;21.89;38.03
43312;BME280;30041;48.300;16.352;2023-04-30T10:23:29;100150.41;;;21.83;37.62
43312;BME280;30041;48.300;16.352;2023-04-30T10:25:56;100162.75;;;21.79;37.42
43312;BME280;30041;48.300;16.352;2023-04-30T10:28:26;100150.56;;;21.88;38.33
43312;BME280;30041;48.300;16.352;2023-04-30T10:30:51;100149.19;;;21.97;39.36
43312;BME280;30041;48.300;16.352;2023-04-30T10:33:24;100144.91;;;22.08;39.72
43312;BME280;30041;48.300;16.352;2023-04-30T10:35:59;100147.94;;;22.12;40.84
43312;BME280;30041;48.300;16.352;2023-04-30T10:38:28;100142.25;;;22.20;41.73
43312;BME280;30041;48.300;16.352;2023-04-30T10:40:57;100134.00;;;22.15;41.97
43312;BME280;30041;48.300;16.352;2023-04-30T10:43:24;100142.25;;;22.20;42.05
43312;BME280;30041;48.300;16.352;2023-04-30T10:45:50;100133.94;;;22.22;42.42
43312;BME280;30041;48.300;16.352;2023-04-30T10:48:16;100129.38;;;22.22;42.49
43312;BME280;30041;48.300;16.352;2023-04-30T10:50:43;100132.06;;;22.22;42.92
43312;BME280;30041;48.300;16.352;2023-04-30T10:53:13;100134.28;;;22.25;43.04
43312;BME280;30041;48.300;16.352;2023-04-30T10:56:02;100131.00;;;22.23;42.65
43312;BME280;30041;48.300;16.352;2023-04-30T10:58:33;100128.91;;;22.25;42.94
43312;BME280;30041;48.300;16.352;2023-04-30T11:01:19;100120.66;;;22.20;43.59
43312;BME280;30041;48.300;16.352;2023-04-30T11:04:13;100114.19;;;22.21;43.57
43312;BME280;30041;48.300;16.352;2023-04-30T11:09:17;100114.94;;;22.28;43.72
43312;BME280;30041;48.300;16.352;2023-04-30T11:11:46;100127.94;;;22.20;43.44
43312;BME280;30041;48.300;16.352;2023-04-30T11:14:12;100121.28;;;22.22;43.58
43312;BME280;30041;48.300;16.352;2023-04-30T11:16:48;100119.38;;;22.23;43.64
43312;BME280;30041;48.300;16.352;2023-04-30T11:19:14;100119.16;;;22.24;43.78
43312;BME280;30041;48.300;16.352;2023-04-30T11:22:26;100127.47;;;22.23;43.90
43312;BME280;30041;48.300;16.352;2023-04-30T11:24:52;100119.81;;;22.20;44.43
43312;BME280;30041;48.300;16.352;2023-04-30T11:27:25;100124.38;;;22.19;44.25
43312;BME280;30041;48.300;16.352;2023-04-30T11:29:52;100124.97;;;22.21;44.20
43312;BME280;30041;48.300;16.352;2023-04-30T11:32:21;100116.69;;;22.23;44.11
43312;BME280;30041;48.300;16.352;2023-04-30T11:34:48;100122.91;;;22.23;44.36
43312;BME280;30041;48.300;16.352;2023-04-30T11:37:28;100109.66;;;22.22;44.42
43312;BME280;30041;48.300;16.352;2023-04-30T11:39:56;100112.91;;;22.24;44.61
43312;BME280;30041;48.300;16.352;2023-04-30T11:42:23;100108.59;;;22.23;44.54
43312;BME280;30041;48.300;16.352;2023-04-30T11:44:48;100098.84;;;22.22;44.66
43312;BME280;30041;48.300;16.352;2023-04-30T11:47:14;100108.38;;;22.24;44.38
43312;BME280;30041;48.300;16.352;2023-04-30T11:49:40;100105.06;;;22.22;44.82
43312;BME280;30041;48.300;16.352;2023-04-30T11:52:06;100100.69;;;22.21;44.79
43312;BME280;30041;48.300;16.352;2023-04-30T11:54:32;100109.66;;;22.22;44.73
43312;BME280;30041;48.300;16.352;2023-04-30T11:56:57;100116.88;;;22.21;44.69
43312;BME280;30041;48.300;16.352;2023-04-30T11:59:23;100116.69;;;22.23;44.79
43312;BME280;30041;48.300;16.352;2023-04-30T12:01:48;100106.94;;;22.22;45.02
43312;BME280;30041;48.300;16.352;2023-04-30T12:04:14;100106.47;;;22.25;44.77
43312;BME280;30041;48.300;16.352;2023-04-30T12:06:40;100105.66;;;22.24;44.78
43312;BME280;30041;48.300;16.352;2023-04-30T12:09:06;100102.38;;;22.22;44.95
43312;BME280;30041;48.300;16.352;2023-04-30T12:11:33;100101.06;;;22.25;44.74
43312;BME280;30041;48.300;16.352;2023-04-30T12:14:07;100098.38;;;22.25;44.73
43312;BME280;30041;48.300;16.352;2023-04-30T12:16:47;100090.81;;;22.15;41.69
43312;BME280;30041;48.300;16.352;2023-04-30T12:19:14;100092.88;;;22.01;40.50
43312;BME280;30041;48.300;16.352;2023-04-30T12:21:41;100094.63;;;21.95;40.23
43312;BME280;30041;48.300;16.352;2023-04-30T12:24:07;100099.34;;;22.00;41.85
43312;BME280;30041;48.300;16.352;2023-04-30T12:26:36;100093.03;;;22.06;42.83
43312;BME280;30041;48.300;16.352;2023-04-30T12:29:08;100089.63;;;22.11;42.44
43312;BME280;30041;48.300;16.352;2023-04-30T12:31:36;100097.94;;;22.09;42.90
43312;BME280;30041;48.300;16.352;2023-04-30T12:34:08;100100.44;;;22.11;42.95
43312;BME280;30041;48.300;16.352;2023-04-30T12:36:34;100094.78;;;22.12;43.30
43312;BME280;30041;48.300;16.352;2023-04-30T12:41:41;100097.38;;;22.19;43.87
43312;BME280;30041;48.300;16.352;2023-04-30T12:44:24;100095.75;;;22.18;43.84
43312;BME280;30041;48.300;16.352;2023-04-30T12:46:52;100095.75;;;22.18;43.74
43312;BME280;30041;48.300;16.352;2023-04-30T12:49:28;100093.66;;;22.20;43.86
43312;BME280;30041;48.300;16.352;2023-04-30T12:52:02;100092.81;;;22.20;43.90
43312;BME280;30041;48.300;16.352;2023-04-30T12:54:31;100089.06;;;22.21;43.91
43312;BME280;30041;48.300;16.352;2023-04-30T12:56:58;100091.56;;;22.22;44.24
43312;BME280;30041;48.300;16.352;2023-04-30T12:59:24;100082.41;;;22.23;44.44